^^
Station Historical Data
 
Daily Summary for February 24, 2018 Units:  English    Metric   Both
« Previous Day
Next Day »
Daily Weekly Monthly Yearly Custom
  Current: High: Low: Average:
Temperature: 74.1 °F TemperatureF °F 66.4 °F 66.6 °F
Dew Point: 43.9 °F DewpointF °F 43.0 °F 43.2 °F
Humidity: 34% Humidity% 33% 40%
Wind Speed: 6.0mph WindSpeedMPHmph 0.0mph 2.4mph
Wind Gust: 9.0mph WindSpeedGustMPHmph - -
WindSouth - - South
Pressure: 29.59 in PressureIn in 29.58 in -
Precipitation: 0.00 in      
Historical Graphs
 
 
Tabular Data for February 24, 2018
Time Temperature Dew Point Pressure Wind Wind Speed Wind Gust Humidity Rainfall Rate (Hourly) solar Conditions
TemperatureF °F DewpointF °F PressureIn in Calm     Humidity% HourlyPrecipIn in SoftwareType W/m2 Conditions
08:05 66.4 °F 43.9 °F 29.58 in SSE 0.9 mph 1.0 mph 44% 0.00 in meteobridge W/m2
08:11 66.4 °F 43.9 °F 29.59 in East 0.9 mph 12.0 mph 44% 0.00 in meteobridge W/m2
08:17 66.7 °F 44.1 °F 29.59 in SSE 4.0 mph 4.0 mph 44% 0.00 in meteobridge W/m2
08:23 67.1 °F 45.0 °F 29.59 in Calm   6.0 mph 45% 0.00 in meteobridge W/m2
08:29 67.6 °F 45.0 °F 29.59 in SE 6.9 mph 7.0 mph 44% 0.00 in meteobridge W/m2
08:35 67.6 °F 45.5 °F 29.59 in SSE 6.0 mph 10.0 mph 45% 0.00 in meteobridge W/m2
08:41 67.6 °F 45.5 °F 29.59 in WSW 4.9 mph 7.0 mph 45% 0.00 in meteobridge W/m2
08:47 67.6 °F 45.5 °F 29.59 in Calm   5.0 mph 45% 0.00 in meteobridge W/m2
08:54 67.8 °F 45.1 °F 29.59 in Calm   5.0 mph 44% 0.00 in meteobridge W/m2
09:00 68.7 °F 46.6 °F 29.60 in WSW 2.9 mph 5.0 mph 45% 0.00 in meteobridge W/m2
09:06 68.5 °F 45.7 °F 29.59 in WNW 2.9 mph 18.0 mph 44% 0.00 in meteobridge W/m2
09:12 68.7 °F 46.6 °F 29.59 in South 4.9 mph 9.0 mph 45% 0.00 in meteobridge W/m2
09:18 69.1 °F 46.2 °F 29.60 in Calm   4.0 mph 44% 0.00 in meteobridge W/m2
09:24 69.3 °F 46.4 °F 29.60 in Calm   6.0 mph 44% 0.00 in meteobridge W/m2
09:43 70.9 °F 46.6 °F 29.60 in NNW 2.9 mph 10.0 mph 42% 0.00 in meteobridge W/m2
09:49 71.8 °F 46.8 °F 29.60 in NW 4.9 mph 7.0 mph 41% 0.00 in meteobridge W/m2
09:55 72.1 °F 46.4 °F 29.60 in Calm   7.0 mph 40% 0.00 in meteobridge W/m2
10:01 72.7 °F 45.0 °F 29.60 in Calm   4.0 mph 37% 0.00 in meteobridge W/m2
10:07 73.2 °F 43.9 °F 29.60 in SE 2.9 mph 5.0 mph 35% 0.00 in meteobridge W/m2
10:14 73.9 °F 43.0 °F 29.60 in NNE 4.0 mph 11.0 mph 33% 0.00 in meteobridge W/m2
10:20 74.7 °F 43.7 °F 29.60 in SE 0.9 mph 5.0 mph 33% 0.00 in meteobridge W/m2
10:26 74.1 °F 43.9 °F 29.59 in South 6.0 mph 9.0 mph 34% 0.00 in meteobridge W/m2
Regenstein, Windhoek, Namibia
Compliments of Weather Underground - 2 mb